sensor_id;sensor_type;location;lat;lon;timestamp;P1;durP1;ratioP1;P2;durP2;ratioP2
23336;SDS011;11840;45.414;12.372;2024-03-23T06:57:52;40.47;;;27.23;;
23336;SDS011;11840;45.414;12.372;2024-03-23T07:00:19;38.53;;;25.73;;
23336;SDS011;11840;45.414;12.372;2024-03-23T07:03:50;36.72;;;25.30;;
23336;SDS011;11840;45.414;12.372;2024-03-23T07:06:16;38.65;;;26.02;;
23336;SDS011;11840;45.414;12.372;2024-03-23T07:08:43;40.67;;;25.38;;
23336;SDS011;11840;45.414;12.372;2024-03-23T07:11:08;40.13;;;25.52;;
23336;SDS011;11840;45.414;12.372;2024-03-23T07:13:34;36.25;;;24.63;;
23336;SDS011;11840;45.414;12.372;2024-03-23T07:16:00;37.92;;;24.67;;
23336;SDS011;11840;45.414;12.372;2024-03-23T07:18:26;33.20;;;23.05;;
23336;SDS011;11840;45.414;12.372;2024-03-23T07:20:56;34.88;;;23.63;;
23336;SDS011;11840;45.414;12.372;2024-03-23T07:23:22;32.30;;;22.65;;
23336;SDS011;11840;45.414;12.372;2024-03-23T07:25:58;30.08;;;21.63;;
23336;SDS011;11840;45.414;12.372;2024-03-23T07:28:25;32.05;;;22.08;;
23336;SDS011;11840;45.414;12.372;2024-03-23T07:31:03;25.33;;;18.88;;
23336;SDS011;11840;45.414;12.372;2024-03-23T07:33:29;32.20;;;19.35;;
23336;SDS011;11840;45.414;12.372;2024-03-23T07:35:55;24.75;;;18.15;;
23336;SDS011;11840;45.414;12.372;2024-03-23T07:38:21;24.73;;;18.50;;
23336;SDS011;11840;45.414;12.372;2024-03-23T07:40:47;25.02;;;17.40;;
23336;SDS011;11840;45.414;12.372;2024-03-23T07:43:15;26.67;;;18.30;;
23336;SDS011;11840;45.414;12.372;2024-03-23T07:45:40;26.50;;;17.75;;
23336;SDS011;11840;45.414;12.372;2024-03-23T07:48:06;25.95;;;19.35;;
23336;SDS011;11840;45.414;12.372;2024-03-23T07:50:33;27.52;;;18.35;;
23336;SDS011;11840;45.414;12.372;2024-03-23T07:52:59;30.35;;;19.55;;
23336;SDS011;11840;45.414;12.372;2024-03-23T07:55:24;25.88;;;19.60;;
23336;SDS011;11840;45.414;12.372;2024-03-23T07:57:51;26.90;;;18.67;;
23336;SDS011;11840;45.414;12.372;2024-03-23T08:00:16;23.35;;;17.60;;
23336;SDS011;11840;45.414;12.372;2024-03-23T08:02:43;25.90;;;19.65;;
23336;SDS011;11840;45.414;12.372;2024-03-23T08:05:09;24.42;;;17.67;;
23336;SDS011;11840;45.414;12.372;2024-03-23T08:07:35;25.70;;;17.50;;
23336;SDS011;11840;45.414;12.372;2024-03-23T08:10:01;26.65;;;16.98;;
23336;SDS011;11840;45.414;12.372;2024-03-23T08:12:29;24.33;;;17.45;;
23336;SDS011;11840;45.414;12.372;2024-03-23T08:14:54;23.30;;;16.80;;
23336;SDS011;11840;45.414;12.372;2024-03-23T08:17:19;22.13;;;16.45;;
23336;SDS011;11840;45.414;12.372;2024-03-23T08:19:45;19.48;;;14.38;;
23336;SDS011;11840;45.414;12.372;2024-03-23T08:22:11;20.23;;;15.82;;
23336;SDS011;11840;45.414;12.372;2024-03-23T08:24:37;22.55;;;16.33;;
23336;SDS011;11840;45.414;12.372;2024-03-23T08:27:03;20.23;;;15.32;;
23336;SDS011;11840;45.414;12.372;2024-03-23T08:29:30;21.63;;;16.17;;
23336;SDS011;11840;45.414;12.372;2024-03-23T08:31:56;22.45;;;16.05;;
23336;SDS011;11840;45.414;12.372;2024-03-23T08:34:22;23.13;;;17.25;;
23336;SDS011;11840;45.414;12.372;2024-03-23T08:36:48;23.73;;;17.23;;
23336;SDS011;11840;45.414;12.372;2024-03-23T08:39:14;21.75;;;16.45;;
23336;SDS011;11840;45.414;12.372;2024-03-23T08:41:40;26.50;;;16.77;;
23336;SDS011;11840;45.414;12.372;2024-03-23T08:44:08;21.70;;;16.05;;
23336;SDS011;11840;45.414;12.372;2024-03-23T08:46:34;22.70;;;15.15;;
23336;SDS011;11840;45.414;12.372;2024-03-23T08:49:00;20.50;;;14.82;;
23336;SDS011;11840;45.414;12.372;2024-03-23T08:51:26;20.65;;;15.95;;
23336;SDS011;11840;45.414;12.372;2024-03-23T08:53:51;21.73;;;15.95;;
23336;SDS011;11840;45.414;12.372;2024-03-23T08:56:17;22.23;;;15.98;;
23336;SDS011;11840;45.414;12.372;2024-03-23T08:58:43;21.75;;;16.00;;
23336;SDS011;11840;45.414;12.372;2024-03-23T09:01:10;20.88;;;15.43;;
23336;SDS011;11840;45.414;12.372;2024-03-23T09:03:36;21.50;;;15.63;;
23336;SDS011;11840;45.414;12.372;2024-03-23T09:06:06;23.25;;;16.83;;
23336;SDS011;11840;45.414;12.372;2024-03-23T09:08:32;21.50;;;16.20;;
23336;SDS011;11840;45.414;12.372;2024-03-23T09:11:03;23.35;;;17.40;;
23336;SDS011;11840;45.414;12.372;2024-03-23T09:13:29;22.98;;;16.23;;
23336;SDS011;11840;45.414;12.372;2024-03-23T09:15:55;25.00;;;17.88;;
23336;SDS011;11840;45.414;12.372;2024-03-23T09:18:21;26.15;;;18.42;;
23336;SDS011;11840;45.414;12.372;2024-03-23T09:20:47;26.80;;;18.65;;
23336;SDS011;11840;45.414;12.372;2024-03-23T09:23:14;29.42;;;21.23;;
23336;SDS011;11840;45.414;12.372;2024-03-23T09:25:40;27.67;;;20.83;;
23336;SDS011;11840;45.414;12.372;2024-03-23T09:28:06;26.50;;;19.50;;
23336;SDS011;11840;45.414;12.372;2024-03-23T09:30:34;26.52;;;20.55;;
23336;SDS011;11840;45.414;12.372;2024-03-23T09:33:00;31.00;;;21.52;;
23336;SDS011;11840;45.414;12.372;2024-03-23T09:35:26;28.05;;;20.38;;
23336;SDS011;11840;45.414;12.372;2024-03-23T09:37:52;25.88;;;19.25;;
23336;SDS011;11840;45.414;12.372;2024-03-23T09:40:19;26.45;;;20.98;;
23336;SDS011;11840;45.414;12.372;2024-03-23T09:42:49;28.38;;;20.23;;
23336;SDS011;11840;45.414;12.372;2024-03-23T09:45:26;27.10;;;21.02;;
23336;SDS011;11840;45.414;12.372;2024-03-23T09:47:52;26.02;;;20.13;;
23336;SDS011;11840;45.414;12.372;2024-03-23T09:50:18;28.60;;;20.30;;
23336;SDS011;11840;45.414;12.372;2024-03-23T09:52:47;26.10;;;19.05;;
23336;SDS011;11840;45.414;12.372;2024-03-23T09:55:13;27.90;;;19.98;;
23336;SDS011;11840;45.414;12.372;2024-03-23T09:57:40;28.15;;;20.65;;
23336;SDS011;11840;45.414;12.372;2024-03-23T10:00:05;27.40;;;20.90;;
23336;SDS011;11840;45.414;12.372;2024-03-23T10:02:32;28.15;;;21.60;;
23336;SDS011;11840;45.414;12.372;2024-03-23T10:04:58;27.00;;;21.80;;
23336;SDS011;11840;45.414;12.372;2024-03-23T10:07:25;31.38;;;23.63;;
23336;SDS011;11840;45.414;12.372;2024-03-23T10:09:51;30.50;;;23.50;;
23336;SDS011;11840;45.414;12.372;2024-03-23T10:12:17;32.28;;;23.10;;
23336;SDS011;11840;45.414;12.372;2024-03-23T10:14:44;35.25;;;23.48;;
23336;SDS011;11840;45.414;12.372;2024-03-23T10:17:22;33.60;;;23.02;;
23336;SDS011;11840;45.414;12.372;2024-03-23T10:19:51;28.33;;;21.55;;
23336;SDS011;11840;45.414;12.372;2024-03-23T10:22:18;26.65;;;20.13;;
23336;SDS011;11840;45.414;12.372;2024-03-23T10:24:45;29.20;;;21.52;;
23336;SDS011;11840;45.414;12.372;2024-03-23T10:27:21;29.83;;;21.05;;
23336;SDS011;11840;45.414;12.372;2024-03-23T10:29:47;28.27;;;21.58;;
23336;SDS011;11840;45.414;12.372;2024-03-23T10:32:14;29.25;;;22.00;;
23336;SDS011;11840;45.414;12.372;2024-03-23T10:34:40;29.95;;;20.92;;
23336;SDS011;11840;45.414;12.372;2024-03-23T10:37:06;27.90;;;22.13;;
23336;SDS011;11840;45.414;12.372;2024-03-23T10:39:35;27.67;;;21.75;;
23336;SDS011;11840;45.414;12.372;2024-03-23T10:42:07;29.25;;;22.27;;
23336;SDS011;11840;45.414;12.372;2024-03-23T10:44:33;29.45;;;21.98;;
23336;SDS011;11840;45.414;12.372;2024-03-23T10:47:00;29.50;;;22.08;;
23336;SDS011;11840;45.414;12.372;2024-03-23T10:49:26;30.73;;;24.35;;
23336;SDS011;11840;45.414;12.372;2024-03-23T10:51:55;33.55;;;23.17;;
23336;SDS011;11840;45.414;12.372;2024-03-23T10:54:21;29.30;;;22.02;;
23336;SDS011;11840;45.414;12.372;2024-03-23T10:56:47;30.45;;;22.00;;
23336;SDS011;11840;45.414;12.372;2024-03-23T10:59:14;28.90;;;22.65;;
23336;SDS011;11840;45.414;12.372;2024-03-23T11:02:01;31.00;;;23.27;;
23336;SDS011;11840;45.414;12.372;2024-03-23T11:04:33;29.70;;;23.75;;
23336;SDS011;11840;45.414;12.372;2024-03-23T11:06:59;30.67;;;23.63;;
23336;SDS011;11840;45.414;12.372;2024-03-23T11:15:05;31.70;;;23.95;;
23336;SDS011;11840;45.414;12.372;2024-03-23T11:17:31;33.27;;;23.97;;
23336;SDS011;11840;45.414;12.372;2024-03-23T11:20:01;34.47;;;25.67;;
23336;SDS011;11840;45.414;12.372;2024-03-23T11:25:19;31.58;;;23.88;;
23336;SDS011;11840;45.414;12.372;2024-03-23T11:27:50;30.23;;;23.23;;
23336;SDS011;11840;45.414;12.372;2024-03-23T11:30:21;33.20;;;23.55;;
23336;SDS011;11840;45.414;12.372;2024-03-23T11:32:50;34.67;;;24.45;;
23336;SDS011;11840;45.414;12.372;2024-03-23T11:40:30;35.15;;;25.23;;
23336;SDS011;11840;45.414;12.372;2024-03-23T11:42:58;34.47;;;25.25;;
23336;SDS011;11840;45.414;12.372;2024-03-23T11:45:23;31.80;;;25.67;;
23336;SDS011;11840;45.414;12.372;2024-03-23T11:48:01;31.90;;;25.40;;
23336;SDS011;11840;45.414;12.372;2024-03-23T11:50:27;34.25;;;25.92;;
23336;SDS011;11840;45.414;12.372;2024-03-23T11:53:01;37.15;;;26.98;;
23336;SDS011;11840;45.414;12.372;2024-03-23T11:55:38;36.90;;;27.42;;
23336;SDS011;11840;45.414;12.372;2024-03-23T11:58:04;37.28;;;27.05;;
23336;SDS011;11840;45.414;12.372;2024-03-23T12:00:30;39.65;;;28.40;;
23336;SDS011;11840;45.414;12.372;2024-03-23T12:03:04;36.72;;;26.98;;
23336;SDS011;11840;45.414;12.372;2024-03-23T12:05:33;36.58;;;27.10;;
23336;SDS011;11840;45.414;12.372;2024-03-23T12:08:15;33.50;;;25.80;;
23336;SDS011;11840;45.414;12.372;2024-03-23T12:10:43;29.80;;;24.35;;
23336;SDS011;11840;45.414;12.372;2024-03-23T12:13:09;35.65;;;26.65;;
23336;SDS011;11840;45.414;12.372;2024-03-23T12:15:36;32.28;;;23.98;;
23336;SDS011;11840;45.414;12.372;2024-03-23T12:18:08;32.00;;;23.92;;
23336;SDS011;11840;45.414;12.372;2024-03-23T12:20:34;30.92;;;23.02;;
23336;SDS011;11840;45.414;12.372;2024-03-23T12:23:12;31.52;;;23.42;;
23336;SDS011;11840;45.414;12.372;2024-03-23T12:25:41;33.40;;;24.13;;
23336;SDS011;11840;45.414;12.372;2024-03-23T12:28:07;34.35;;;24.38;;
23336;SDS011;11840;45.414;12.372;2024-03-23T12:30:37;33.55;;;23.45;;
23336;SDS011;11840;45.414;12.372;2024-03-23T12:33:04;34.40;;;25.02;;
23336;SDS011;11840;45.414;12.372;2024-03-23T12:35:29;35.85;;;25.48;;
23336;SDS011;11840;45.414;12.372;2024-03-23T12:37:55;32.35;;;23.73;;
23336;SDS011;11840;45.414;12.372;2024-03-23T12:40:21;32.92;;;25.10;;
23336;SDS011;11840;45.414;12.372;2024-03-23T12:42:47;31.88;;;24.73;;
23336;SDS011;11840;45.414;12.372;2024-03-23T12:45:13;35.38;;;23.77;;
23336;SDS011;11840;45.414;12.372;2024-03-23T12:47:39;32.67;;;23.65;;
23336;SDS011;11840;45.414;12.372;2024-03-23T12:50:06;33.83;;;24.23;;
23336;SDS011;11840;45.414;12.372;2024-03-23T12:52:35;31.77;;;23.20;;
23336;SDS011;11840;45.414;12.372;2024-03-23T12:55:01;29.10;;;21.85;;
23336;SDS011;11840;45.414;12.372;2024-03-23T12:57:27;29.85;;;21.98;;
23336;SDS011;11840;45.414;12.372;2024-03-23T12:59:53;33.55;;;22.48;;
23336;SDS011;11840;45.414;12.372;2024-03-23T13:02:22;32.85;;;21.13;;
23336;SDS011;11840;45.414;12.372;2024-03-23T13:04:52;30.38;;;21.83;;
23336;SDS011;11840;45.414;12.372;2024-03-23T13:07:19;32.30;;;22.23;;
23336;SDS011;11840;45.414;12.372;2024-03-23T13:09:45;29.10;;;21.42;;
23336;SDS011;11840;45.414;12.372;2024-03-23T13:12:11;34.53;;;22.70;;
23336;SDS011;11840;45.414;12.372;2024-03-23T13:14:37;32.03;;;22.98;;
23336;SDS011;11840;45.414;12.372;2024-03-23T13:17:03;31.13;;;21.70;;
23336;SDS011;11840;45.414;12.372;2024-03-23T13:19:30;28.52;;;20.90;;
23336;SDS011;11840;45.414;12.372;2024-03-23T13:21:56;30.88;;;21.80;;
23336;SDS011;11840;45.414;12.372;2024-03-23T13:24:23;30.17;;;22.00;;
23336;SDS011;11840;45.414;12.372;2024-03-23T13:26:49;29.58;;;21.95;;
23336;SDS011;11840;45.414;12.372;2024-03-23T13:29:15;32.33;;;22.08;;
23336;SDS011;11840;45.414;12.372;2024-03-23T13:31:41;28.08;;;20.92;;
23336;SDS011;11840;45.414;12.372;2024-03-23T13:34:07;31.92;;;22.30;;
23336;SDS011;11840;45.414;12.372;2024-03-23T13:36:33;27.42;;;20.98;;
23336;SDS011;11840;45.414;12.372;2024-03-23T13:38:59;29.63;;;22.38;;
23336;SDS011;11840;45.414;12.372;2024-03-23T13:41:24;30.35;;;21.60;;
23336;SDS011;11840;45.414;12.372;2024-03-23T13:43:50;30.42;;;21.58;;
23336;SDS011;11840;45.414;12.372;2024-03-23T13:46:16;32.25;;;23.10;;
23336;SDS011;11840;45.414;12.372;2024-03-23T13:48:43;28.75;;;21.80;;
23336;SDS011;11840;45.414;12.372;2024-03-23T13:51:09;28.40;;;20.85;;
23336;SDS011;11840;45.414;12.372;2024-03-23T13:53:34;32.45;;;22.85;;
23336;SDS011;11840;45.414;12.372;2024-03-23T13:56:00;32.92;;;22.13;;
23336;SDS011;11840;45.414;12.372;2024-03-23T13:58:26;29.55;;;21.98;;
23336;SDS011;11840;45.414;12.372;2024-03-23T14:00:53;33.53;;;22.58;;
23336;SDS011;11840;45.414;12.372;2024-03-23T14:03:19;33.67;;;22.70;;
23336;SDS011;11840;45.414;12.372;2024-03-23T14:05:45;32.70;;;20.90;;
23336;SDS011;11840;45.414;12.372;2024-03-23T14:08:12;32.45;;;22.10;;
23336;SDS011;11840;45.414;12.372;2024-03-23T14:10:41;34.67;;;23.45;;
23336;SDS011;11840;45.414;12.372;2024-03-23T14:13:08;30.73;;;22.23;;
23336;SDS011;11840;45.414;12.372;2024-03-23T14:15:34;32.28;;;22.33;;
23336;SDS011;11840;45.414;12.372;2024-03-23T14:18:02;33.33;;;23.15;;
23336;SDS011;11840;45.414;12.372;2024-03-23T14:20:27;29.48;;;21.52;;
23336;SDS011;11840;45.414;12.372;2024-03-23T14:22:53;33.42;;;22.80;;
23336;SDS011;11840;45.414;12.372;2024-03-23T14:25:19;26.67;;;19.65;;
23336;SDS011;11840;45.414;12.372;2024-03-23T14:27:46;27.40;;;19.27;;
23336;SDS011;11840;45.414;12.372;2024-03-23T14:30:12;27.27;;;16.88;;
23336;SDS011;11840;45.414;12.372;2024-03-23T14:32:39;21.27;;;16.30;;
23336;SDS011;11840;45.414;12.372;2024-03-23T14:35:05;24.42;;;17.25;;
23336;SDS011;11840;45.414;12.372;2024-03-23T14:37:32;22.38;;;15.48;;
23336;SDS011;11840;45.414;12.372;2024-03-23T14:39:58;21.55;;;15.60;;
23336;SDS011;11840;45.414;12.372;2024-03-23T14:42:24;20.05;;;14.80;;
23336;SDS011;11840;45.414;12.372;2024-03-23T14:44:51;20.35;;;14.57;;
23336;SDS011;11840;45.414;12.372;2024-03-23T14:47:17;18.75;;;14.13;;
23336;SDS011;11840;45.414;12.372;2024-03-23T14:49:46;18.98;;;13.70;;
23336;SDS011;11840;45.414;12.372;2024-03-23T14:52:13;16.83;;;12.32;;
23336;SDS011;11840;45.414;12.372;2024-03-23T14:54:38;18.42;;;12.27;;
23336;SDS011;11840;45.414;12.372;2024-03-23T14:57:04;18.60;;;13.77;;
23336;SDS011;11840;45.414;12.372;2024-03-23T14:59:30;19.60;;;13.52;;
23336;SDS011;11840;45.414;12.372;2024-03-23T15:01:56;17.95;;;12.75;;
23336;SDS011;11840;45.414;12.372;2024-03-23T15:04:22;18.90;;;12.73;;
23336;SDS011;11840;45.414;12.372;2024-03-23T15:06:47;16.92;;;12.52;;
23336;SDS011;11840;45.414;12.372;2024-03-23T15:09:15;16.85;;;11.23;;
23336;SDS011;11840;45.414;12.372;2024-03-23T15:11:41;18.65;;;12.73;;
23336;SDS011;11840;45.414;12.372;2024-03-23T15:14:07;17.00;;;11.73;;
23336;SDS011;11840;45.414;12.372;2024-03-23T15:16:33;18.77;;;11.13;;
23336;SDS011;11840;45.414;12.372;2024-03-23T15:18:59;44.75;;;30.58;;
23336;SDS011;11840;45.414;12.372;2024-03-23T15:21:25;21.17;;;14.40;;
23336;SDS011;11840;45.414;12.372;2024-03-23T15:23:51;15.40;;;11.50;;
23336;SDS011;11840;45.414;12.372;2024-03-23T15:26:17;14.70;;;10.38;;
23336;SDS011;11840;45.414;12.372;2024-03-23T15:28:47;13.85;;;10.95;;
23336;SDS011;11840;45.414;12.372;2024-03-23T15:31:21;16.25;;;10.10;;
23336;SDS011;11840;45.414;12.372;2024-03-23T15:33:47;15.20;;;10.70;;
23336;SDS011;11840;45.414;12.372;2024-03-23T15:36:14;13.50;;;9.90;;
23336;SDS011;11840;45.414;12.372;2024-03-23T15:38:39;14.40;;;9.27;;
23336;SDS011;11840;45.414;12.372;2024-03-23T15:41:05;12.80;;;9.27;;
23336;SDS011;11840;45.414;12.372;2024-03-23T15:43:31;12.20;;;9.10;;
23336;SDS011;11840;45.414;12.372;2024-03-23T15:45:57;11.38;;;8.25;;
23336;SDS011;11840;45.414;12.372;2024-03-23T15:48:25;13.30;;;9.75;;
23336;SDS011;11840;45.414;12.372;2024-03-23T15:50:57;13.43;;;9.25;;
23336;SDS011;11840;45.414;12.372;2024-03-23T15:53:30;16.17;;;9.10;;
23336;SDS011;11840;45.414;12.372;2024-03-23T15:55:56;12.60;;;8.65;;
23336;SDS011;11840;45.414;12.372;2024-03-23T15:58:22;10.65;;;7.95;;
23336;SDS011;11840;45.414;12.372;2024-03-23T16:00:55;11.13;;;7.68;;
23336;SDS011;11840;45.414;12.372;2024-03-23T16:03:21;10.70;;;7.88;;
23336;SDS011;11840;45.414;12.372;2024-03-23T16:05:51;10.80;;;7.70;;
23336;SDS011;11840;45.414;12.372;2024-03-23T16:08:17;10.68;;;7.05;;
23336;SDS011;11840;45.414;12.372;2024-03-23T16:10:43;8.60;;;6.55;;
23336;SDS011;11840;45.414;12.372;2024-03-23T16:13:08;9.13;;;7.00;;
23336;SDS011;11840;45.414;12.372;2024-03-23T16:15:34;9.18;;;6.90;;
23336;SDS011;11840;45.414;12.372;2024-03-23T16:18:00;8.05;;;6.13;;
23336;SDS011;11840;45.414;12.372;2024-03-23T16:20:26;8.82;;;6.95;;
23336;SDS011;11840;45.414;12.372;2024-03-23T16:22:52;11.20;;;6.30;;
23336;SDS011;11840;45.414;12.372;2024-03-23T16:25:18;8.40;;;6.82;;
23336;SDS011;11840;45.414;12.372;2024-03-23T16:27:44;11.00;;;6.32;;
23336;SDS011;11840;45.414;12.372;2024-03-23T16:30:10;9.98;;;6.28;;
23336;SDS011;11840;45.414;12.372;2024-03-23T16:32:36;7.97;;;6.05;;
23336;SDS011;11840;45.414;12.372;2024-03-23T16:35:04;15.00;;;6.78;;
23336;SDS011;11840;45.414;12.372;2024-03-23T16:37:29;9.77;;;6.00;;
23336;SDS011;11840;45.414;12.372;2024-03-23T16:39:55;8.93;;;5.88;;
23336;SDS011;11840;45.414;12.372;2024-03-23T16:42:21;10.35;;;5.88;;
23336;SDS011;11840;45.414;12.372;2024-03-23T16:44:47;8.30;;;5.75;;
23336;SDS011;11840;45.414;12.372;2024-03-23T16:47:13;8.23;;;5.63;;
23336;SDS011;11840;45.414;12.372;2024-03-23T16:49:39;10.35;;;5.82;;
23336;SDS011;11840;45.414;12.372;2024-03-23T16:52:05;9.88;;;5.70;;
23336;SDS011;11840;45.414;12.372;2024-03-23T16:54:31;10.10;;;5.32;;
23336;SDS011;11840;45.414;12.372;2024-03-23T16:56:57;7.90;;;5.40;;
23336;SDS011;11840;45.414;12.372;2024-03-23T16:59:24;7.65;;;5.07;;
23336;SDS011;11840;45.414;12.372;2024-03-23T17:01:49;7.88;;;5.68;;
23336;SDS011;11840;45.414;12.372;2024-03-23T17:04:16;7.13;;;5.38;;
23336;SDS011;11840;45.414;12.372;2024-03-23T17:06:41;7.07;;;5.63;;
23336;SDS011;11840;45.414;12.372;2024-03-23T17:09:07;11.23;;;5.75;;
23336;SDS011;11840;45.414;12.372;2024-03-23T17:11:34;6.93;;;5.72;;
23336;SDS011;11840;45.414;12.372;2024-03-23T17:14:01;10.57;;;5.47;;
23336;SDS011;11840;45.414;12.372;2024-03-23T17:16:27;11.82;;;5.30;;
23336;SDS011;11840;45.414;12.372;2024-03-23T17:18:56;8.75;;;5.53;;
23336;SDS011;11840;45.414;12.372;2024-03-23T17:21:22;9.25;;;5.35;;
23336;SDS011;11840;45.414;12.372;2024-03-23T17:23:48;8.70;;;5.80;;
23336;SDS011;11840;45.414;12.372;2024-03-23T17:26:15;8.32;;;6.05;;
23336;SDS011;11840;45.414;12.372;2024-03-23T17:28:45;8.18;;;5.10;;
23336;SDS011;11840;45.414;12.372;2024-03-23T17:31:15;8.05;;;5.53;;
23336;SDS011;11840;45.414;12.372;2024-03-23T17:33:41;8.30;;;5.20;;
23336;SDS011;11840;45.414;12.372;2024-03-23T17:36:07;6.53;;;4.57;;
23336;SDS011;11840;45.414;12.372;2024-03-23T17:38:33;9.00;;;4.93;;
23336;SDS011;11840;45.414;12.372;2024-03-23T17:41:00;6.80;;;4.65;;
23336;SDS011;11840;45.414;12.372;2024-03-23T17:43:26;7.07;;;4.68;;
23336;SDS011;11840;45.414;12.372;2024-03-23T17:45:52;8.00;;;5.25;;
23336;SDS011;11840;45.414;12.372;2024-03-23T17:48:19;9.15;;;5.00;;
23336;SDS011;11840;45.414;12.372;2024-03-23T17:50:44;7.47;;;5.10;;
23336;SDS011;11840;45.414;12.372;2024-03-23T17:53:10;7.70;;;4.75;;
23336;SDS011;11840;45.414;12.372;2024-03-23T17:55:36;9.23;;;4.95;;
23336;SDS011;11840;45.414;12.372;2024-03-23T17:58:02;6.22;;;4.70;;
23336;SDS011;11840;45.414;12.372;2024-03-23T18:00:28;7.57;;;5.15;;
23336;SDS011;11840;45.414;12.372;2024-03-23T18:02:53;9.32;;;4.55;;
23336;SDS011;11840;45.414;12.372;2024-03-23T18:05:19;10.13;;;5.00;;
23336;SDS011;11840;45.414;12.372;2024-03-23T18:07:48;11.98;;;5.30;;
23336;SDS011;11840;45.414;12.372;2024-03-23T18:10:13;9.30;;;6.25;;
23336;SDS011;11840;45.414;12.372;2024-03-23T18:12:39;9.48;;;4.97;;
23336;SDS011;11840;45.414;12.372;2024-03-23T18:15:05;8.75;;;5.32;;
23336;SDS011;11840;45.414;12.372;2024-03-23T18:17:31;9.73;;;6.00;;
23336;SDS011;11840;45.414;12.372;2024-03-23T18:19:57;11.75;;;6.55;;
23336;SDS011;11840;45.414;12.372;2024-03-23T18:22:23;11.27;;;7.15;;
23336;SDS011;11840;45.414;12.372;2024-03-23T18:24:49;10.68;;;7.43;;
23336;SDS011;11840;45.414;12.372;2024-03-23T18:27:15;10.75;;;7.20;;
23336;SDS011;11840;45.414;12.372;2024-03-23T18:29:41;10.73;;;7.25;;
23336;SDS011;11840;45.414;12.372;2024-03-23T18:32:07;12.20;;;7.82;;
23336;SDS011;11840;45.414;12.372;2024-03-23T18:34:33;15.00;;;8.00;;
23336;SDS011;11840;45.414;12.372;2024-03-23T18:36:58;9.95;;;7.80;;
23336;SDS011;11840;45.414;12.372;2024-03-23T18:39:25;13.35;;;9.15;;
23336;SDS011;11840;45.414;12.372;2024-03-23T18:41:53;13.30;;;9.55;;
23336;SDS011;11840;45.414;12.372;2024-03-23T18:44:19;13.35;;;9.32;;
23336;SDS011;11840;45.414;12.372;2024-03-23T18:46:45;14.02;;;9.23;;
23336;SDS011;11840;45.414;12.372;2024-03-23T18:49:12;14.38;;;10.32;;
23336;SDS011;11840;45.414;12.372;2024-03-23T18:51:38;12.27;;;8.93;;
23336;SDS011;11840;45.414;12.372;2024-03-23T18:54:04;18.50;;;9.88;;
23336;SDS011;11840;45.414;12.372;2024-03-23T18:56:30;16.40;;;10.27;;
23336;SDS011;11840;45.414;12.372;2024-03-23T18:58:56;14.40;;;10.93;;
23336;SDS011;11840;45.414;12.372;2024-03-23T19:01:22;20.70;;;11.65;;
23336;SDS011;11840;45.414;12.372;2024-03-23T19:03:48;25.30;;;12.00;;
23336;SDS011;11840;45.414;12.372;2024-03-23T19:06:14;35.63;;;25.25;;
23336;SDS011;11840;45.414;12.372;2024-03-23T19:08:40;23.30;;;16.75;;
23336;SDS011;11840;45.414;12.372;2024-03-23T19:11:06;21.02;;;12.73;;
23336;SDS011;11840;45.414;12.372;2024-03-23T19:13:33;16.90;;;11.90;;
23336;SDS011;11840;45.414;12.372;2024-03-23T19:16:02;15.85;;;10.85;;
23336;SDS011;11840;45.414;12.372;2024-03-23T19:18:27;15.68;;;11.23;;
23336;SDS011;11840;45.414;12.372;2024-03-23T19:23:20;13.45;;;9.75;;
23336;SDS011;11840;45.414;12.372;2024-03-23T19:25:53;18.13;;;10.27;;
23336;SDS011;11840;45.414;12.372;2024-03-23T19:28:19;14.18;;;9.63;;
23336;SDS011;11840;45.414;12.372;2024-03-23T19:30:46;13.43;;;9.73;;
23336;SDS011;11840;45.414;12.372;2024-03-23T19:33:12;20.02;;;11.23;;
23336;SDS011;11840;45.414;12.372;2024-03-23T19:35:38;17.83;;;9.85;;
23336;SDS011;11840;45.414;12.372;2024-03-23T19:38:05;15.63;;;9.02;;
23336;SDS011;11840;45.414;12.372;2024-03-23T19:40:31;17.00;;;9.57;;
23336;SDS011;11840;45.414;12.372;2024-03-23T19:42:57;12.20;;;8.60;;
23336;SDS011;11840;45.414;12.372;2024-03-23T19:45:23;12.15;;;8.30;;
23336;SDS011;11840;45.414;12.372;2024-03-23T19:47:49;12.40;;;8.13;;
23336;SDS011;11840;45.414;12.372;2024-03-23T19:50:15;13.48;;;8.38;;
23336;SDS011;11840;45.414;12.372;2024-03-23T19:52:41;14.75;;;8.48;;
23336;SDS011;11840;45.414;12.372;2024-03-23T19:55:07;13.35;;;8.38;;
23336;SDS011;11840;45.414;12.372;2024-03-23T19:57:33;11.95;;;8.30;;
23336;SDS011;11840;45.414;12.372;2024-03-23T19:59:59;13.02;;;7.82;;
23336;SDS011;11840;45.414;12.372;2024-03-23T20:02:25;14.27;;;8.05;;
23336;SDS011;11840;45.414;12.372;2024-03-23T20:04:51;12.40;;;8.75;;
23336;SDS011;11840;45.414;12.372;2024-03-23T20:07:17;12.30;;;8.52;;
23336;SDS011;11840;45.414;12.372;2024-03-23T20:09:43;11.05;;;7.65;;
23336;SDS011;11840;45.414;12.372;2024-03-23T20:12:09;12.50;;;8.18;;
23336;SDS011;11840;45.414;12.372;2024-03-23T20:14:35;15.00;;;7.97;;
23336;SDS011;11840;45.414;12.372;2024-03-23T20:17:04;20.35;;;11.93;;
23336;SDS011;11840;45.414;12.372;2024-03-23T20:19:30;13.70;;;8.75;;
23336;SDS011;11840;45.414;12.372;2024-03-23T20:21:56;14.93;;;8.20;;
23336;SDS011;11840;45.414;12.372;2024-03-23T20:24:22;14.50;;;8.60;;
23336;SDS011;11840;45.414;12.372;2024-03-23T20:26:48;10.77;;;7.40;;
23336;SDS011;11840;45.414;12.372;2024-03-23T20:29:14;12.32;;;7.53;;
23336;SDS011;11840;45.414;12.372;2024-03-23T20:31:40;11.18;;;7.15;;
23336;SDS011;11840;45.414;12.372;2024-03-23T20:34:07;13.02;;;6.60;;
23336;SDS011;11840;45.414;12.372;2024-03-23T20:36:32;11.02;;;6.50;;
23336;SDS011;11840;45.414;12.372;2024-03-23T20:38:59;9.52;;;6.63;;
23336;SDS011;11840;45.414;12.372;2024-03-23T20:41:25;9.75;;;6.57;;
23336;SDS011;11840;45.414;12.372;2024-03-23T20:43:51;11.45;;;6.75;;
23336;SDS011;11840;45.414;12.372;2024-03-23T20:46:17;14.00;;;6.32;;
23336;SDS011;11840;45.414;12.372;2024-03-23T20:48:42;10.02;;;6.82;;
23336;SDS011;11840;45.414;12.372;2024-03-23T20:51:13;12.80;;;6.38;;
23336;SDS011;11840;45.414;12.372;2024-03-23T20:53:39;11.35;;;7.13;;
23336;SDS011;11840;45.414;12.372;2024-03-23T20:56:05;12.40;;;7.30;;
23336;SDS011;11840;45.414;12.372;2024-03-23T20:58:31;11.52;;;6.85;;
23336;SDS011;11840;45.414;12.372;2024-03-23T21:01:00;17.10;;;9.93;;
23336;SDS011;11840;45.414;12.372;2024-03-23T21:03:26;16.33;;;10.98;;
23336;SDS011;11840;45.414;12.372;2024-03-23T21:05:56;14.00;;;9.13;;
23336;SDS011;11840;45.414;12.372;2024-03-23T21:08:22;18.95;;;12.63;;
23336;SDS011;11840;45.414;12.372;2024-03-23T21:10:51;18.08;;;12.77;;
23336;SDS011;11840;45.414;12.372;2024-03-23T21:13:17;20.40;;;14.23;;
23336;SDS011;11840;45.414;12.372;2024-03-23T21:15:49;19.30;;;13.60;;
23336;SDS011;11840;45.414;12.372;2024-03-23T21:18:15;16.77;;;11.93;;
23336;SDS011;11840;45.414;12.372;2024-03-23T21:20:40;16.23;;;12.23;;
23336;SDS011;11840;45.414;12.372;2024-03-23T21:23:06;14.00;;;10.80;;
23336;SDS011;11840;45.414;12.372;2024-03-23T21:25:32;15.70;;;8.93;;
23336;SDS011;11840;45.414;12.372;2024-03-23T21:27:58;10.80;;;7.55;;